Time;durP1;ratioP1;P1;durP2;ratioP2;P2;SDS_P1;SDS_P2;PMS_P1;PMS_P2;Temp;Humidity;BMP_temperature;BMP_pressure;BME280_temperature;BME280_humidity;BME280_pressure;Samples;Min_cycle;Max_cycle;Signal;HPM_P1;HPM_P2
2022/01/14 00:01:59;;;;;;;13.80;8.63;;;7.70;96.60;;;;;;5027827;28;19909;-76
2022/01/14 00:04:25;;;;;;;14.77;9.93;;;7.80;96.60;;;;;;5026255;28;20518;-76
2022/01/14 00:06:51;;;;;;;15.70;9.80;;;7.80;96.60;;;;;;5025957;28;20037;-76
2022/01/14 00:09:17;;;;;;;16.30;9.93;;;7.80;96.60;;;;;;5026637;28;20032;-76
2022/01/14 00:11:49;;;;;;;12.20;9.68;;;7.80;96.60;;;;;;5009950;28;20025;-76
2022/01/14 00:16:42;;;;;;;15.55;9.82;;;7.90;96.70;;;;;;5027835;28;20478;-76
2022/01/14 00:19:07;;;;;;;12.50;9.52;;;7.90;96.50;;;;;;5026322;28;20025;-76
2022/01/14 00:21:35;;;;;;;14.57;8.98;;;7.90;96.50;;;;;;5009991;28;20034;-76
2022/01/14 00:24:11;;;;;;;11.07;8.48;;;8.00;96.50;;;;;;5026161;28;20033;-76
2022/01/14 00:34:52;;;;;;;16.27;9.02;;;8.00;96.50;;;;;;5027642;28;20025;-76
2022/01/14 00:37:18;;;;;;;13.93;9.52;;;8.00;96.50;;;;;;5010216;28;20029;-76
2022/01/14 00:39:46;;;;;;;13.38;9.60;;;8.00;96.50;;;;;;4993778;28;20029;-76
2022/01/14 00:42:13;;;;;;;15.80;10.32;;;8.00;96.50;;;;;;5026040;28;20049;-76
2022/01/14 00:44:39;;;;;;;17.73;10.32;;;8.00;96.50;;;;;;5026254;28;20033;-76
2022/01/14 00:47:05;;;;;;;15.25;9.30;;;8.10;96.50;;;;;;5009936;28;20049;-76
2022/01/14 00:49:31;;;;;;;13.85;9.43;;;8.10;96.50;;;;;;5026217;28;20025;-76
2022/01/14 00:51:57;;;;;;;15.55;8.82;;;8.10;96.50;;;;;;5009798;28;20041;-76
2022/01/14 00:54:25;;;;;;;11.20;8.40;;;8.10;96.60;;;;;;5009469;28;20545;-76
2022/01/14 00:59:34;;;;;;;14.43;9.57;;;8.10;96.50;;;;;;5026620;28;20029;-76
2022/01/14 01:02:01;;;;;;;12.02;10.10;;;8.10;96.50;;;;;;5026261;28;20087;-77
2022/01/14 01:04:35;;;;;;;13.88;11.30;;;8.00;96.50;;;;;;5026048;28;20040;-76
2022/01/14 01:07:03;;;;;;;14.15;10.52;;;8.00;96.60;;;;;;5025965;28;20104;-76
2022/01/14 01:09:30;;;;;;;15.50;10.43;;;7.90;96.70;;;;;;5025852;28;20025;-76
2022/01/14 01:12:30;;;;;;;13.80;9.65;;;7.90;96.80;;;;;;5026038;28;20025;-76
2022/01/14 01:15:07;;;;;;;15.60;9.88;;;7.90;96.90;;;;;;5027023;28;20031;-77
2022/01/14 01:17:33;;;;;;;;;;;7.90;96.90;;;;;;5028656;28;20368;-76
2022/01/14 01:19:59;;;;;;;14.00;9.45;;;8.00;96.90;;;;;;5030712;28;19916;-76
2022/01/14 01:22:26;;;;;;;13.73;9.82;;;8.00;96.80;;;;;;5013061;28;20046;-77
2022/01/14 01:24:52;;;;;;;13.75;10.75;;;8.00;96.80;;;;;;5029411;28;20028;-76
2022/01/14 01:27:20;;;;;;;15.18;12.68;;;8.00;96.70;;;;;;4996676;28;20422;-76
2022/01/14 01:30:11;;;;;;;13.07;11.77;;;7.90;96.80;;;;;;5029234;28;20501;-76
2022/01/14 01:32:38;;;;;;;16.23;12.45;;;7.90;96.80;;;;;;5029520;28;20060;-76
2022/01/14 01:35:04;;;;;;;17.05;11.63;;;7.90;96.90;;;;;;5029052;28;20095;-76
2022/01/14 01:37:30;;;;;;;13.82;12.63;;;7.80;96.90;;;;;;5029027;28;20167;-76
2022/01/14 01:39:55;;;;;;;14.27;11.80;;;7.80;97.00;;;;;;5029120;28;20034;-76
2022/01/14 01:42:27;;;;;;;18.58;13.38;;;7.80;97.00;;;;;;5030239;28;20095;-76
2022/01/14 01:44:53;;;;;;;17.70;12.82;;;7.80;97.00;;;;;;5028979;28;20033;-76
2022/01/14 01:47:22;;;;;;;14.25;12.95;;;7.80;97.10;;;;;;5028994;28;20563;-77
2022/01/14 01:49:48;;;;;;;16.20;12.73;;;7.80;97.10;;;;;;5012834;28;20421;-76
2022/01/14 01:52:14;;;;;;;18.73;11.82;;;7.80;97.10;;;;;;5030337;28;20060;-76
2022/01/14 01:54:40;;;;;;;15.13;13.48;;;7.80;97.10;;;;;;5028709;28;20458;-77
2022/01/14 01:57:06;;;;;;;15.65;14.00;;;7.80;97.10;;;;;;5028790;28;20029;-76
2022/01/14 01:59:33;;;;;;;21.10;13.05;;;7.80;97.10;;;;;;4995978;28;20029;-77
2022/01/14 02:02:01;;;;;;;16.23;13.52;;;7.80;97.10;;;;;;5028817;28;20022;-76
2022/01/14 02:04:28;;;;;;;14.60;11.77;;;7.80;97.20;;;;;;5012568;28;20018;-76
2022/01/14 02:06:56;;;;;;;18.05;11.98;;;7.80;97.40;;;;;;5028991;28;20033;-76
2022/01/14 02:09:23;;;;;;;22.67;12.60;;;7.80;97.20;;;;;;5028658;28;20598;-76
2022/01/14 02:11:49;;;;;;;16.08;12.25;;;7.80;97.10;;;;;;5028810;28;20038;-76
2022/01/14 02:19:44;;;;;;;13.63;11.68;;;7.90;97.00;;;;;;5029931;28;20079;-77
2022/01/14 02:22:11;;;;;;;15.25;11.50;;;7.90;97.00;;;;;;5013175;28;20116;-77
2022/01/14 02:27:08;;;;;;;16.85;11.40;;;7.90;97.10;;;;;;5029612;28;20473;-76
2022/01/14 02:29:34;;;;;;;15.25;11.70;;;7.90;97.10;;;;;;5028628;28;20033;-76
2022/01/14 02:32:00;;;;;;;;;;;8.00;97.00;;;;;;5030062;28;20467;-76
2022/01/14 02:34:26;;;;;;;15.57;14.00;;;7.90;97.00;;;;;;5028265;28;19913;-76
2022/01/14 02:36:52;;;;;;;16.45;14.73;;;7.90;97.00;;;;;;5028388;28;20426;-76
2022/01/14 02:39:19;;;;;;;16.60;14.90;;;7.90;97.10;;;;;;5029264;28;20099;-76
2022/01/14 02:41:47;;;;;;;18.98;12.98;;;7.90;97.20;;;;;;5028972;28;20133;-76
2022/01/14 02:44:23;;;;;;;15.27;13.77;;;7.90;97.30;;;;;;5029208;28;20538;-77
2022/01/14 02:46:56;;;;;;;15.32;13.52;;;7.90;97.30;;;;;;5029356;28;20677;-76
2022/01/14 02:49:26;;;;;;;15.38;13.43;;;7.90;97.20;;;;;;5028196;28;20414;-76
2022/01/14 02:51:51;;;;;;;17.38;13.75;;;8.00;97.10;;;;;;5028993;28;20025;-76
2022/01/14 02:54:22;;;;;;;15.98;14.10;;;8.00;97.10;;;;;;5027724;28;20030;-76
2022/01/14 02:56:51;;;;;;;16.63;15.05;;;8.00;97.10;;;;;;5029087;28;20107;-76
2022/01/14 02:59:18;;;;;;;23.50;16.60;;;8.00;97.20;;;;;;5029089;28;20431;-76
2022/01/14 03:01:48;;;;;;;21.95;15.85;;;8.00;97.20;;;;;;5028840;28;20025;-77
2022/01/14 03:04:17;;;;;;;19.40;16.98;;;7.90;97.20;;;;;;5028773;28;20052;-76
2022/01/14 03:06:43;;;;;;;19.23;16.10;;;7.90;97.20;;;;;;5027747;28;20087;-76
2022/01/14 03:09:09;;;;;;;17.05;14.80;;;7.80;97.30;;;;;;5027506;28;20029;-76
2022/01/14 03:11:44;;;;;;;;;;;7.80;97.40;;;;;;5027648;28;20422;-76
2022/01/14 03:14:10;;;;;;;17.85;14.82;;;7.80;97.40;;;;;;5027092;28;19909;-77
2022/01/14 03:16:41;;;;;;;17.63;13.90;;;7.80;97.30;;;;;;5028419;28;20036;-76
2022/01/14 03:19:14;;;;;;;20.08;13.65;;;7.90;97.30;;;;;;5011588;28;20056;-76
2022/01/14 03:21:41;;;;;;;23.10;14.35;;;7.90;97.30;;;;;;5027165;28;20030;-76
2022/01/14 03:25:37;;;;;;;16.45;14.13;;;7.90;97.40;;;;;;5028309;28;20439;-76
2022/01/14 03:27:10;;;;;;;15.98;11.38;;;7.80;97.40;;;;;;5028292;28;20498;-76
2022/01/14 03:29:36;;;;;;;13.02;10.23;;;7.80;97.30;;;;;;5027349;28;20030;-76
2022/01/14 03:32:03;;;;;;;14.98;7.85;;;7.80;97.30;;;;;;5028252;28;20030;-76
2022/01/14 03:34:30;;;;;;;12.05;7.40;;;7.90;97.30;;;;;;5010482;28;20071;-76
2022/01/14 03:36:56;;;;;;;16.33;9.02;;;7.90;97.30;;;;;;5026920;28;20021;-76
2022/01/14 03:39:22;;;;;;;11.80;7.88;;;8.00;97.20;;;;;;5026684;28;20471;-76
2022/01/14 03:41:48;;;;;;;14.85;9.05;;;8.00;97.00;;;;;;4994134;28;20048;-76
2022/01/14 03:44:15;;;;;;;14.55;9.50;;;8.00;97.00;;;;;;5027028;28;20343;-76
2022/01/14 03:46:41;;;;;;;13.10;8.70;;;8.00;96.90;;;;;;5028298;28;20036;-77
2022/01/14 03:49:07;;;;;;;15.98;10.45;;;8.10;96.80;;;;;;5010728;28;20120;-76
2022/01/14 03:51:32;;;;;;;19.27;11.23;;;8.10;96.80;;;;;;5026882;28;20108;-76
2022/01/14 03:53:58;;;;;;;16.00;11.35;;;8.10;96.70;;;;;;5028028;28;20034;-76
2022/01/14 03:56:25;;;;;;;16.88;11.25;;;8.10;96.60;;;;;;5026781;28;20075;-77
2022/01/14 03:58:52;;;;;;;14.20;11.10;;;8.10;96.50;;;;;;4994291;28;20079;-77
2022/01/14 04:01:19;;;;;;;11.25;7.10;;;8.10;96.50;;;;;;5026680;28;20033;-76
2022/01/14 04:03:47;;;;;;;22.15;7.25;;;8.10;96.40;;;;;;5028048;28;20027;-76
2022/01/14 04:06:13;;;;;;;9.75;7.53;;;8.00;96.40;;;;;;5026655;28;20554;-76
2022/01/14 04:08:40;;;;;;;16.25;7.10;;;7.90;96.50;;;;;;5010254;28;20449;-77
2022/01/14 04:11:08;;;;;;;13.02;7.03;;;7.90;96.60;;;;;;5027899;28;20022;-76
2022/01/14 04:13:44;;;;;;;9.88;6.72;;;7.90;96.60;;;;;;5026399;28;20025;-76
2022/01/14 04:16:10;;;;;;;14.02;7.35;;;7.80;96.60;;;;;;5026441;28;20049;-77
2022/01/14 04:18:36;;;;;;;12.15;10.70;;;7.80;96.60;;;;;;5026488;28;20020;-76
2022/01/14 04:21:02;;;;;;;;;;;7.70;96.60;;;;;;5028347;28;20053;-77
2022/01/14 04:23:28;;;;;;;14.45;10.68;;;7.70;96.70;;;;;;5010022;28;20260;-77
2022/01/14 04:25:55;;;;;;;14.07;11.50;;;7.70;96.60;;;;;;5026215;28;20454;-76
2022/01/14 04:28:21;;;;;;;;;;;7.80;96.60;;;;;;5010521;28;20129;-76
2022/01/14 04:30:54;;;;;;;11.85;9.07;;;7.80;96.60;;;;;;5027569;28;19913;-76
2022/01/14 04:33:20;;;;;;;13.40;10.23;;;7.80;96.50;;;;;;4995211;28;20060;-77
2022/01/14 04:35:45;;;;;;;11.70;10.50;;;7.80;96.60;;;;;;5027381;28;20026;-76
2022/01/14 04:38:11;;;;;;;21.73;9.13;;;7.80;96.60;;;;;;5009795;28;20032;-77
2022/01/14 04:40:37;;;;;;;14.68;6.60;;;7.80;96.60;;;;;;5009551;28;20037;-77
2022/01/14 04:43:03;;;;;;;11.98;6.50;;;7.80;96.50;;;;;;4993523;28;20364;-77
2022/01/14 04:48:00;;;;;;;13.07;6.50;;;7.80;96.40;;;;;;5027541;28;20438;-77
2022/01/14 04:50:26;;;;;;;12.05;7.18;;;7.80;96.40;;;;;;5027441;28;20044;-77
2022/01/14 04:52:53;;;;;;;11.57;6.97;;;7.70;96.50;;;;;;5029162;28;20030;-76
2022/01/14 04:55:22;;;;;;;10.07;7.95;;;7.70;96.50;;;;;;5029828;28;20091;-77
2022/01/14 04:57:48;;;;;;;11.88;8.52;;;7.70;96.50;;;;;;5029897;28;20022;-77
2022/01/14 05:00:20;;;;;;;12.98;7.90;;;7.80;96.40;;;;;;5013225;28;20029;-76
2022/01/14 05:02:46;;;;;;;13.75;8.75;;;7.80;96.40;;;;;;5029954;28;20387;-76
2022/01/14 05:05:12;;;;;;;16.38;9.15;;;7.80;96.30;;;;;;5029736;28;20025;-77
2022/01/14 05:07:38;;;;;;;13.18;8.15;;;7.90;96.30;;;;;;5029664;28;20034;-77
2022/01/14 05:12:40;;;;;;;14.45;10.13;;;7.90;96.30;;;;;;5031145;28;20363;-76
2022/01/14 05:15:07;;;;;;;12.32;9.63;;;7.80;96.30;;;;;;5013680;28;20574;-77
2022/01/14 05:17:34;;;;;;;16.45;7.15;;;7.80;96.30;;;;;;5029608;28;20041;-77
2022/01/14 05:19:59;;;;;;;;;;;7.80;96.20;;;;;;5030039;28;20120;-76
2022/01/14 05:22:26;;;;;;;10.82;7.80;;;7.90;96.20;;;;;;5029578;28;20020;-77
2022/01/14 05:24:51;;;;;;;;;;;7.80;96.10;;;;;;5031179;28;20047;-77
2022/01/14 05:27:17;;;;;;;13.25;7.82;;;7.80;96.20;;;;;;5030856;28;19909;-77
2022/01/14 05:29:43;;;;;;;17.35;7.88;;;7.80;96.30;;;;;;5030670;28;20490;-76
2022/01/14 05:32:13;;;;;;;12.45;7.05;;;7.70;96.30;;;;;;5029413;28;20102;-77
2022/01/14 05:34:39;;;;;;;14.95;7.63;;;7.70;96.30;;;;;;5030436;28;20026;-76
2022/01/14 05:37:06;;;;;;;18.05;9.18;;;7.70;96.20;;;;;;5012949;28;20104;-76
2022/01/14 05:39:33;;;;;;;14.00;10.15;;;7.80;96.20;;;;;;5029154;28;20117;-76
2022/01/14 05:42:00;;;;;;;15.10;10.43;;;7.80;96.10;;;;;;5030589;28;20049;-76
2022/01/14 05:44:27;;;;;;;12.25;8.95;;;7.80;96.00;;;;;;4996505;28;20479;-76
2022/01/14 05:46:55;;;;;;;15.90;9.13;;;7.80;96.00;;;;;;5028910;28;20442;-76
2022/01/14 05:49:21;;;;;;;14.95;9.32;;;7.80;96.00;;;;;;5028934;28;20532;-77
2022/01/14 05:51:47;;;;;;;17.10;9.07;;;7.80;96.00;;;;;;5029035;28;20120;-76
2022/01/14 05:54:13;;;;;;;;;;;7.80;96.00;;;;;;5029259;28;20033;-76
2022/01/14 05:56:39;;;;;;;17.02;7.80;;;7.80;96.00;;;;;;5028855;28;19960;-77
2022/01/14 05:59:05;;;;;;;13.13;9.05;;;7.80;96.00;;;;;;5030037;28;20049;-76
2022/01/14 06:01:31;;;;;;;13.25;7.57;;;7.80;95.90;;;;;;5029971;28;20419;-77
2022/01/14 06:03:58;;;;;;;13.88;7.70;;;7.80;95.90;;;;;;5028850;28;20117;-77
2022/01/14 06:06:24;;;;;;;16.42;8.02;;;7.80;95.90;;;;;;5012104;28;20045;-76
2022/01/14 06:08:49;;;;;;;10.18;6.68;;;7.80;95.80;;;;;;5012090;28;20034;-76
2022/01/14 06:11:16;;;;;;;12.48;7.22;;;7.80;95.70;;;;;;4995792;28;20037;-76
2022/01/14 06:13:42;;;;;;;15.27;9.63;;;7.70;95.70;;;;;;5029739;28;20376;-76
2022/01/14 06:16:08;;;;;;;16.98;10.68;;;7.70;95.70;;;;;;5028290;28;20064;-77
2022/01/14 06:18:34;;;;;;;13.98;7.70;;;7.60;95.70;;;;;;5029569;28;20029;-76
2022/01/14 06:20:59;;;;;;;14.30;8.60;;;7.60;95.80;;;;;;5011928;28;20075;-77
2022/01/14 06:23:25;;;;;;;13.90;9.55;;;7.60;95.80;;;;;;5028196;28;20316;-76
2022/01/14 06:25:51;;;;;;;15.93;10.00;;;7.50;95.80;;;;;;5011682;28;20025;-76
2022/01/14 06:28:16;;;;;;;11.82;7.45;;;7.50;95.90;;;;;;5027957;28;20041;-76
2022/01/14 06:30:42;;;;;;;13.05;8.20;;;7.50;96.00;;;;;;5027833;28;20259;-76
2022/01/14 06:33:08;;;;;;;11.55;8.70;;;7.50;96.10;;;;;;5027935;28;20411;-76
2022/01/14 06:35:34;;;;;;;14.45;8.75;;;7.50;96.10;;;;;;5027898;28;20030;-76
2022/01/14 06:38:00;;;;;;;13.75;7.97;;;7.50;96.00;;;;;;5027888;28;20040;-76
2022/01/14 06:40:27;;;;;;;12.65;8.02;;;7.50;96.00;;;;;;5027996;28;20097;-76
2022/01/14 06:42:53;;;;;;;11.90;7.53;;;7.50;96.00;;;;;;5029048;28;20049;-76
2022/01/14 06:45:19;;;;;;;12.05;8.30;;;7.60;95.90;;;;;;5029065;28;20495;-76
2022/01/14 06:47:45;;;;;;;12.43;8.18;;;7.60;95.90;;;;;;5011356;28;20049;-77
2022/01/14 06:50:11;;;;;;;14.25;7.97;;;7.60;95.90;;;;;;5028043;28;20151;-77
2022/01/14 06:52:36;;;;;;;13.38;8.35;;;7.50;96.00;;;;;;5028005;28;20041;-77
2022/01/14 06:55:03;;;;;;;14.60;9.40;;;7.50;96.00;;;;;;5027602;28;20025;-77
2022/01/14 06:57:29;;;;;;;18.95;9.88;;;7.60;96.00;;;;;;5029322;28;20056;-76
2022/01/14 06:59:54;;;;;;;16.45;9.95;;;7.60;96.20;;;;;;5027281;28;20030;-76
2022/01/14 07:02:20;;;;;;;12.73;8.20;;;7.60;96.00;;;;;;5028651;28;20053;-76
2022/01/14 07:04:46;;;;;;;12.52;7.65;;;7.60;96.00;;;;;;5010947;28;20083;-77
2022/01/14 07:07:12;;;;;;;16.38;9.25;;;7.60;96.00;;;;;;5027232;28;20545;-76
2022/01/14 07:09:55;;;;;;;15.70;9.05;;;7.60;96.00;;;;;;5028855;28;20028;-76
2022/01/14 07:12:25;;;;;;;14.40;9.68;;;7.50;96.20;;;;;;4999256;28;20137;-77
2022/01/14 07:14:51;;;;;;;14.95;9.93;;;7.50;96.00;;;;;;5027736;28;20021;-76
2022/01/14 07:17:17;;;;;;;;;;;7.60;96.00;;;;;;5011003;28;20479;-77
2022/01/14 07:19:42;;;;;;;15.18;9.23;;;7.60;96.00;;;;;;5026807;28;19955;-77
2022/01/14 07:22:08;;;;;;;19.17;9.18;;;7.60;95.90;;;;;;5026620;28;20033;-77
2022/01/14 07:24:34;;;;;;;11.50;9.35;;;7.60;95.90;;;;;;4993986;28;20388;-76
2022/01/14 07:27:00;;;;;;;13.30;8.52;;;7.60;95.90;;;;;;5028374;28;20034;-75
2022/01/14 07:29:25;;;;;;;14.25;8.80;;;7.60;95.80;;;;;;4993601;28;20480;-75
2022/01/14 07:31:51;;;;;;;9.80;8.32;;;7.60;95.80;;;;;;5026683;28;20025;-76
2022/01/14 07:34:17;;;;;;;16.05;8.10;;;7.60;95.80;;;;;;5010008;28;20507;-75
2022/01/14 07:36:43;;;;;;;11.93;8.70;;;7.60;95.80;;;;;;5010189;28;20033;-75
2022/01/14 07:39:09;;;;;;;9.77;7.15;;;7.60;95.80;;;;;;5009947;28;20038;-75
2022/01/14 07:41:35;;;;;;;10.68;7.00;;;7.60;95.80;;;;;;5027529;28;20129;-76
2022/01/14 07:44:03;;;;;;;14.32;7.72;;;7.60;95.80;;;;;;5026598;28;20125;-76
2022/01/14 07:46:29;;;;;;;17.48;7.38;;;7.60;95.70;;;;;;5027626;28;20025;-76
2022/01/14 07:48:55;;;;;;;13.70;7.70;;;7.60;96.00;;;;;;5026281;28;20039;-76
2022/01/14 07:51:21;;;;;;;14.57;7.97;;;7.60;95.80;;;;;;5026459;28;20099;-76
2022/01/14 07:53:46;;;;;;;10.45;7.28;;;7.60;95.80;;;;;;5027394;28;20136;-76
2022/01/14 07:56:13;;;;;;;12.88;7.45;;;7.60;95.70;;;;;;5026086;28;20541;-76
2022/01/14 07:58:40;;;;;;;;;;;7.60;95.70;;;;;;4995685;28;20028;-76
2022/01/14 08:01:06;;;;;;;11.20;7.30;;;7.60;95.70;;;;;;5026391;28;19911;-75
2022/01/14 08:03:32;;;;;;;15.00;7.30;;;7.60;95.60;;;;;;5026122;28;20056;-76
2022/01/14 08:05:58;;;;;;;10.80;6.28;;;7.60;95.60;;;;;;5026614;28;20029;-76
2022/01/14 08:08:24;;;;;;;;;;;7.50;95.50;;;;;;5026705;28;20522;-77
2022/01/14 08:10:50;;;;;;;12.20;5.78;;;7.50;95.60;;;;;;5025960;28;19913;-77
2022/01/14 08:13:16;;;;;;;10.38;7.32;;;7.40;95.70;;;;;;5026067;28;20092;-76
2022/01/14 08:15:42;;;;;;;15.82;6.43;;;7.40;95.70;;;;;;5025721;28;20037;-76
2022/01/14 08:18:09;;;;;;;11.65;6.55;;;7.50;95.70;;;;;;5026001;28;20033;-76
2022/01/14 08:20:34;;;;;;;13.75;7.15;;;7.50;95.60;;;;;;5009682;28;20377;-76
2022/01/14 08:23:00;;;;;;;14.40;6.90;;;7.50;95.50;;;;;;5025913;28;20040;-76
2022/01/14 08:25:27;;;;;;;12.13;6.38;;;7.60;95.50;;;;;;5009579;28;20048;-76
2022/01/14 08:27:53;;;;;;;9.60;5.90;;;7.50;95.50;;;;;;5030159;28;20025;-77
2022/01/14 08:30:19;;;;;;;13.77;6.65;;;7.50;95.50;;;;;;5013569;28;20391;-76
2022/01/14 08:32:44;;;;;;;16.20;6.88;;;7.50;95.60;;;;;;5029679;28;20593;-75
2022/01/14 08:35:10;;;;;;;13.70;6.35;;;7.50;95.60;;;;;;5029869;28;20108;-77
2022/01/14 08:37:40;;;;;;;14.90;7.03;;;7.60;95.60;;;;;;5013394;28;20117;-77
2022/01/14 08:40:07;;;;;;;41.45;18.13;;;7.60;95.50;;;;;;5031121;28;20384;-76
2022/01/14 08:42:33;;;;;;;25.52;10.98;;;7.60;95.40;;;;;;5029671;28;20041;-77
2022/01/14 08:44:59;;;;;;;26.42;9.55;;;7.70;95.40;;;;;;5013278;28;20030;-77
2022/01/14 08:47:25;;;;;;;15.27;8.02;;;7.70;95.30;;;;;;5029442;28;20383;-76
2022/01/14 08:49:51;;;;;;;14.38;8.57;;;7.70;95.30;;;;;;5013110;28;20022;-76
2022/01/14 08:52:17;;;;;;;13.05;8.38;;;7.60;95.30;;;;;;5029271;28;20095;-76
2022/01/14 08:54:43;;;;;;;11.27;7.30;;;7.60;95.40;;;;;;5028951;28;20270;-76
2022/01/14 08:57:09;;;;;;;15.93;9.05;;;7.60;95.30;;;;;;5030390;28;20480;-77
2022/01/14 08:59:36;;;;;;;11.68;8.43;;;7.60;95.30;;;;;;5028450;28;20034;-77
2022/01/14 09:02:02;;;;;;;11.20;8.27;;;7.50;95.30;;;;;;5028527;28;20044;-76
2022/01/14 09:04:28;;;;;;;;;;;7.50;95.40;;;;;;5030637;28;20052;-77
2022/01/14 09:06:54;;;;;;;14.73;8.80;;;7.50;95.50;;;;;;5014515;28;19909;-75
2022/01/14 09:09:20;;;;;;;11.20;9.23;;;7.50;95.50;;;;;;5031930;28;20036;-75
2022/01/14 09:11:46;;;;;;;16.92;10.43;;;7.50;95.50;;;;;;5031105;28;20136;-77
2022/01/14 09:14:12;;;;;;;14.07;9.80;;;7.50;95.50;;;;;;5014290;28;20124;-78
2022/01/14 09:16:39;;;;;;;16.58;9.00;;;7.50;95.50;;;;;;5029325;28;20269;-75
2022/01/14 09:19:04;;;;;;;16.88;8.27;;;7.50;95.40;;;;;;5012820;28;20033;-77
2022/01/14 09:21:30;;;;;;;17.90;9.43;;;7.50;95.50;;;;;;5030181;28;20470;-76
2022/01/14 09:24:05;;;;;;;14.00;9.18;;;7.50;95.60;;;;;;5030166;28;20391;-77
2022/01/14 09:26:36;;;;;;;13.57;8.90;;;7.50;95.60;;;;;;5014965;28;20517;-76
2022/01/14 09:29:03;;;;;;;12.02;8.23;;;7.50;95.60;;;;;;5031375;28;20151;-76
2022/01/14 09:31:29;;;;;;;16.50;8.48;;;7.50;95.60;;;;;;5029713;28;20494;-76
2022/01/14 09:33:55;;;;;;;13.45;8.63;;;7.50;95.90;;;;;;5030608;28;20038;-76
2022/01/14 09:36:21;;;;;;;16.52;9.90;;;7.50;95.70;;;;;;5013064;28;20065;-76
2022/01/14 09:38:47;;;;;;;13.25;9.48;;;7.50;95.70;;;;;;5029036;28;20116;-76
2022/01/14 09:41:14;;;;;;;12.73;8.57;;;7.60;95.70;;;;;;5029107;28;20056;-77
2022/01/14 09:43:40;;;;;;;16.90;8.90;;;7.60;95.60;;;;;;5030530;28;20029;-76
2022/01/14 09:46:08;;;;;;;16.63;9.30;;;7.60;95.60;;;;;;5029062;28;20099;-76
2022/01/14 09:48:35;;;;;;;17.38;9.35;;;7.60;95.60;;;;;;5028814;28;20033;-75
2022/01/14 09:51:02;;;;;;;12.55;8.13;;;7.70;95.60;;;;;;5012699;28;20040;-76
2022/01/14 09:53:28;;;;;;;13.88;8.98;;;7.70;95.50;;;;;;5012828;28;20416;-76
2022/01/14 09:55:54;;;;;;;11.45;9.60;;;7.70;95.50;;;;;;5030057;28;20450;-77
2022/01/14 09:58:23;;;;;;;12.98;10.15;;;7.70;95.50;;;;;;5030143;28;20025;-76
2022/01/14 10:00:49;;;;;;;13.10;9.20;;;7.80;95.50;;;;;;5028829;28;20098;-76
2022/01/14 10:03:23;;;;;;;16.25;9.65;;;7.80;95.50;;;;;;5030276;28;20610;-75
2022/01/14 10:05:52;;;;;;;13.25;8.55;;;7.80;95.60;;;;;;5030334;28;20091;-75
2022/01/14 10:08:24;;;;;;;13.93;8.45;;;7.80;95.70;;;;;;5028683;28;20517;-75
2022/01/14 10:10:55;;;;;;;12.30;8.35;;;7.80;95.70;;;;;;5028823;28;20029;-76
2022/01/14 10:13:23;;;;;;;15.02;8.60;;;7.90;95.70;;;;;;5029210;28;20086;-75
2022/01/14 10:15:59;;;;;;;10.90;8.00;;;7.90;95.60;;;;;;5029714;28;20112;-76
2022/01/14 10:18:24;;;;;;;13.05;8.00;;;8.00;95.60;;;;;;5030869;28;20013;-77
2022/01/14 10:20:51;;;;;;;14.38;9.48;;;8.10;95.60;;;;;;5013218;28;20109;-77
2022/01/14 10:23:37;;;;;;;13.70;8.93;;;8.10;95.60;;;;;;5031321;28;20832;-77
2022/01/14 10:26:04;;;;;;;17.05;9.10;;;8.20;95.60;;;;;;5037798;28;20562;-76
2022/01/14 10:28:30;;;;;;;19.65;9.88;;;8.20;95.70;;;;;;5033177;28;20056;-76
2022/01/14 10:30:55;;;;;;;17.23;9.23;;;8.30;95.50;;;;;;5039309;28;20056;-77
2022/01/14 10:33:28;;;;;;;18.00;9.43;;;8.30;95.40;;;;;;5013063;28;20042;-76
2022/01/14 10:35:56;;;;;;;14.45;9.55;;;8.30;95.40;;;;;;5029771;28;20021;-78
2022/01/14 10:38:26;;;;;;;14.73;8.85;;;8.30;95.30;;;;;;5012809;28;20022;-76
2022/01/14 10:40:56;;;;;;;13.13;9.02;;;8.20;95.30;;;;;;5029170;28;20021;-76
2022/01/14 10:43:30;;;;;;;14.60;9.00;;;8.20;95.40;;;;;;5029174;28;20021;-77
2022/01/14 10:45:56;;;;;;;12.80;8.40;;;8.30;95.60;;;;;;5012676;28;20030;-76
2022/01/14 10:48:29;;;;;;;15.65;9.15;;;8.30;95.50;;;;;;5011627;28;20030;-77
2022/01/14 10:50:59;;;;;;;17.35;8.52;;;8.40;95.50;;;;;;5026686;28;20167;-77
2022/01/14 10:53:31;;;;;;;15.63;8.55;;;8.40;95.50;;;;;;5030393;28;20034;-76
2022/01/14 10:56:04;;;;;;;18.00;7.90;;;8.30;95.60;;;;;;5028536;28;20052;-76
2022/01/14 10:58:35;;;;;;;12.32;7.72;;;8.30;95.60;;;;;;5029051;28;20033;-76
2022/01/14 11:01:11;;;;;;;13.52;7.43;;;8.40;95.50;;;;;;5010524;28;20072;-77
2022/01/14 11:03:41;;;;;;;17.42;8.32;;;8.40;95.40;;;;;;5028849;28;20025;-76
2022/01/14 11:06:16;;;;;;;15.38;8.18;;;8.40;95.50;;;;;;5029777;28;20478;-76
2022/01/14 11:08:42;;;;;;;16.00;7.15;;;8.30;95.50;;;;;;5027825;28;20021;-76
2022/01/14 11:11:08;;;;;;;16.63;8.02;;;8.40;95.60;;;;;;5012612;28;20040;-76
2022/01/14 11:13:34;;;;;;;;;;;8.50;95.60;;;;;;5018672;28;20033;-77
2022/01/14 11:15:59;;;;;;;16.75;8.85;;;8.60;95.60;;;;;;5030019;28;19909;-77
2022/01/14 11:18:25;;;;;;;12.60;7.05;;;8.70;95.50;;;;;;5028751;28;20029;-77
2022/01/14 11:23:35;;;;;;;12.85;6.05;;;8.90;95.60;;;;;;5029956;28;20079;-76
2022/01/14 11:26:04;;;;;;;13.35;6.07;;;9.00;95.50;;;;;;5012853;28;20033;-76
2022/01/14 11:28:33;;;;;;;13.20;5.75;;;9.20;95.40;;;;;;5028623;28;20029;-78
2022/01/14 11:31:00;;;;;;;14.32;5.05;;;9.30;95.20;;;;;;5028441;28;20029;-79
2022/01/14 11:33:42;;;;;;;;;;;9.50;95.10;;;;;;5012985;28;20029;-77
2022/01/14 11:36:08;;;;;;;11.90;5.18;;;9.60;95.00;;;;;;5030065;28;19913;-77
2022/01/14 11:38:38;;;;;;;12.93;5.20;;;9.60;94.80;;;;;;5029535;28;20046;-78
2022/01/14 11:41:05;;;;;;;13.77;5.28;;;9.70;94.90;;;;;;5030409;28;20072;-76
2022/01/14 11:43:43;;;;;;;12.88;5.32;;;9.70;94.80;;;;;;5028954;28;20395;-80
2022/01/14 11:46:13;;;;;;;13.50;5.55;;;9.60;94.80;;;;;;5028580;28;20419;-77
2022/01/14 11:48:49;;;;;;;12.30;5.55;;;9.60;95.10;;;;;;5028351;28;20494;-77
2022/01/14 11:51:17;;;;;;;10.35;4.90;;;9.70;95.20;;;;;;5028329;28;20025;-77
2022/01/14 11:53:48;;;;;;;14.18;6.80;;;10.00;95.30;;;;;;5013037;28;20044;-77
2022/01/14 11:56:32;;;;;;;15.20;4.95;;;10.20;95.10;;;;;;5028826;28;20040;-77
2022/01/14 11:59:22;;;;;;;12.18;5.10;;;10.50;95.00;;;;;;5028420;28;20021;-77
2022/01/14 12:01:53;;;;;;;13.15;5.50;;;10.70;95.10;;;;;;5028238;28;20032;-77
2022/01/14 12:04:20;;;;;;;14.50;4.93;;;11.20;95.70;;;;;;5027248;28;20022;-75
2022/01/14 12:07:06;;;;;;;13.80;4.85;;;11.80;95.90;;;;;;5011447;28;20037;-77
2022/01/14 12:09:59;;;;;;;12.90;4.95;;;12.60;95.30;;;;;;5010261;28;20423;-75
2022/01/14 12:12:28;;;;;;;9.75;3.97;;;13.20;95.00;;;;;;5027014;28;20033;-75
2022/01/14 12:15:00;;;;;;;11.07;3.97;;;13.80;95.20;;;;;;5026644;28;20033;-75
2022/01/14 12:17:42;;;;;;;14.90;3.67;;;14.50;95.10;;;;;;5026602;28;20031;-76
2022/01/14 12:20:18;;;;;;;9.60;4.25;;;15.30;94.40;;;;;;5021601;28;20386;-76
2022/01/14 12:23:09;;;;;;;13.13;3.90;;;15.90;93.70;;;;;;5026235;28;20468;-75
2022/01/14 12:25:43;;;;;;;11.45;5.25;;;16.50;92.60;;;;;;5027249;28;20037;-74
2022/01/14 12:28:17;;;;;;;9.88;3.58;;;16.70;91.90;;;;;;5024114;28;20532;-75
2022/01/14 12:30:57;;;;;;;9.90;3.05;;;16.80;90.90;;;;;;5023428;28;20025;-73
2022/01/14 12:33:48;;;;;;;18.58;5.47;;;16.90;90.10;;;;;;5027740;28;20360;-73
2022/01/14 12:36:18;;;;;;;9.23;3.38;;;17.10;88.70;;;;;;5026026;28;20522;-74
2022/01/14 12:38:45;;;;;;;12.15;4.05;;;17.20;88.80;;;;;;5022202;28;20161;-76
2022/01/14 12:41:18;;;;;;;11.27;4.03;;;17.30;86.90;;;;;;5025697;28;20041;-76
2022/01/14 12:43:52;;;;;;;11.13;3.88;;;17.30;83.90;;;;;;5024626;28;20021;-73
2022/01/14 12:49:08;;;;;;;18.50;4.35;;;16.40;79.70;;;;;;5027455;28;20017;-76
2022/01/14 12:51:34;;;;;;;13.95;4.30;;;15.60;79.00;;;;;;5026502;28;20454;-74
2022/01/14 12:54:02;;;;;;;;;;;14.90;78.90;;;;;;5011372;28;20029;-76
2022/01/14 12:56:30;;;;;;;11.52;3.90;;;14.10;79.80;;;;;;5028118;28;19924;-75
2022/01/14 12:59:13;;;;;;;9.55;3.70;;;13.40;80.40;;;;;;5026312;28;20094;-74
2022/01/14 13:01:50;;;;;;;9.15;3.35;;;12.90;80.90;;;;;;5026492;28;20091;-74
2022/01/14 13:04:18;;;;;;;8.75;3.88;;;12.50;81.10;;;;;;5028521;28;20021;-75
2022/01/14 13:06:55;;;;;;;10.75;3.13;;;12.30;81.30;;;;;;5010285;28;20033;-75
2022/01/14 13:09:29;;;;;;;8.32;3.05;;;12.10;81.30;;;;;;5026058;28;20068;-77
2022/01/14 13:12:04;;;;;;;7.32;3.20;;;11.90;81.20;;;;;;5026823;28;20479;-76
2022/01/14 13:14:42;;;;;;;7.63;2.88;;;11.60;81.10;;;;;;5029345;28;20388;-72
2022/01/14 13:17:14;;;;;;;7.85;3.10;;;11.40;81.60;;;;;;5027471;28;20029;-74
2022/01/14 13:19:41;;;;;;;13.98;3.33;;;11.30;81.90;;;;;;5029703;28;20021;-76
2022/01/14 13:22:16;;;;;;;8.63;2.60;;;11.10;82.10;;;;;;5029904;28;20018;-76
2022/01/14 13:24:49;;;;;;;6.20;2.45;;;10.90;82.10;;;;;;5030746;28;20025;-76
2022/01/14 13:27:20;;;;;;;5.72;2.30;;;10.80;82.30;;;;;;5031165;28;20028;-76